Terminal Aerodrome Forecast
Issued by NWS

Home | Current Version | Previous Version | Text Only | Print | Product List | Glossary On
Versions: 1 2 3 4 5 6 7 8 9 10 11 12 13 14 15 16 17 18 19 20 21 22 23 24 25 26 27 28 29 30
000
FTUS45 KSLC 071727
TAFLGU
TAF
KLGU 071727Z 0718/0818 VRB04KT P6SM FEW060 SCT120
     FM072100 36007KT P6SM VCSH SCT060 BKN120
     FM080300 VRB04KT P6SM FEW060 SCT120=

USA.gov is the U.S. government's official web portal to all federal, state and local government web resources and services.